Time;durP1;ratioP1;P1;durP2;ratioP2;P2;SDS_P1;SDS_P2;PMS_P1;PMS_P2;Temp;Humidity;BMP_temperature;BMP_pressure;BME280_temperature;BME280_humidity;BME280_pressure;Samples;Min_cycle;Max_cycle;Signal;HPM_P1;HPM_P2
2022/07/30 00:00:24;;;;;;;0.70;0.10;;;21.90;99.90;;;;;;4996490;28;20494;-75
2022/07/30 00:02:53;;;;;;;0.70;0.10;;;21.90;99.90;;;;;;5000946;28;20832;-76
2022/07/30 00:05:21;;;;;;;0.70;0.10;;;21.90;99.90;;;;;;4994761;28;20468;-75
2022/07/30 00:07:49;;;;;;;0.70;0.20;;;21.90;99.90;;;;;;4994375;28;20448;-75
2022/07/30 00:10:17;;;;;;;0.70;0.10;;;21.90;99.90;;;;;;4995409;28;20448;-76
2022/07/30 00:12:45;;;;;;;0.70;0.20;;;21.90;99.90;;;;;;4994283;28;20453;-76
2022/07/30 00:15:13;;;;;;;0.70;0.10;;;21.90;99.90;;;;;;4993802;28;20465;-76
2022/07/30 00:17:41;;;;;;;0.70;0.20;;;21.80;99.90;;;;;;4993861;28;20456;-76
2022/07/30 00:20:14;;;;;;;0.70;0.10;;;21.80;99.90;;;;;;4993424;28;20977;-76
2022/07/30 00:22:42;;;;;;;0.70;0.10;;;21.80;99.90;;;;;;4993787;28;20445;-76
2022/07/30 00:25:11;;;;;;;0.70;0.10;;;21.80;99.90;;;;;;4993843;28;20489;-76
2022/07/30 00:27:38;;;;;;;0.70;0.10;;;21.70;99.90;;;;;;4993655;28;20829;-76
2022/07/30 00:30:07;;;;;;;0.70;0.10;;;21.70;99.90;;;;;;4993482;28;20449;-75
2022/07/30 00:32:35;;;;;;;0.70;0.10;;;21.60;99.90;;;;;;4993505;28;20449;-76
2022/07/30 00:35:04;;;;;;;0.70;0.17;;;21.60;99.90;;;;;;4993118;28;20489;-75
2022/07/30 00:37:33;;;;;;;0.70;0.20;;;21.40;99.90;;;;;;4993674;28;20449;-75
2022/07/30 00:40:02;;;;;;;0.70;0.10;;;21.40;99.90;;;;;;4994229;28;20488;-76
2022/07/30 00:42:38;;;;;;;0.70;0.10;;;21.40;99.90;;;;;;4993519;28;20548;-75
2022/07/30 00:45:08;;;;;;;0.70;0.10;;;21.30;99.90;;;;;;4993023;28;20981;-75
2022/07/30 00:47:36;;;;;;;0.70;0.10;;;21.30;99.90;;;;;;4993385;28;20826;-75
2022/07/30 00:50:06;;;;;;;0.70;0.20;;;21.30;99.90;;;;;;4993673;28;20455;-75
2022/07/30 00:52:37;;;;;;;0.70;0.10;;;21.30;99.90;;;;;;4993223;28;20937;-75
2022/07/30 00:55:06;;;;;;;0.70;0.10;;;21.20;99.90;;;;;;4992783;28;20477;-75
2022/07/30 00:57:34;;;;;;;0.70;0.10;;;21.20;99.90;;;;;;4992760;28;20464;-75
2022/07/30 01:00:03;;;;;;;0.70;0.20;;;21.10;99.90;;;;;;4992766;28;20482;-75
2022/07/30 01:02:31;;;;;;;0.70;0.10;;;21.10;99.90;;;;;;4992918;28;20463;-75
2022/07/30 01:04:59;;;;;;;0.70;0.10;;;21.00;99.90;;;;;;4992784;28;20887;-75
2022/07/30 01:07:27;;;;;;;0.70;0.10;;;21.00;99.90;;;;;;4993163;28;20446;-75
2022/07/30 01:09:56;;;;;;;0.70;0.20;;;21.00;99.90;;;;;;4993303;28;20433;-75
2022/07/30 01:12:26;;;;;;;0.70;0.10;;;21.00;99.90;;;;;;4992749;28;20563;-75
2022/07/30 01:14:56;;;;;;;0.60;0.10;;;21.00;99.90;;;;;;4992220;28;20484;-75
2022/07/30 01:17:24;;;;;;;0.60;0.20;;;20.90;99.90;;;;;;4992200;28;20551;-75
2022/07/30 01:19:57;;;;;;;0.70;0.10;;;21.00;99.90;;;;;;4992487;28;20994;-75
2022/07/30 01:22:37;;;;;;;0.70;0.10;;;20.90;99.90;;;;;;4992191;28;20540;-74
2022/07/30 01:25:14;;;;;;;0.70;0.10;;;20.90;99.90;;;;;;4992162;28;20468;-74
2022/07/30 01:27:46;;;;;;;0.70;0.20;;;20.90;99.90;;;;;;4991713;28;20817;-75
2022/07/30 01:30:17;;;;;;;0.70;0.20;;;20.90;99.90;;;;;;4992298;28;20445;-74
2022/07/30 01:32:47;;;;;;;0.70;0.20;;;20.90;99.90;;;;;;4992140;28;20452;-74
2022/07/30 01:35:19;;;;;;;0.67;0.10;;;20.80;99.90;;;;;;4991789;28;20560;-75
2022/07/30 01:37:48;;;;;;;0.70;0.10;;;20.80;99.90;;;;;;4992377;28;20552;-74
2022/07/30 01:40:17;;;;;;;0.70;0.10;;;20.70;99.90;;;;;;4992334;28;20485;-74
2022/07/30 01:42:48;;;;;;;0.77;0.50;;;20.60;99.90;;;;;;4991854;28;20453;-75
2022/07/30 01:45:18;;;;;;;0.70;0.20;;;20.60;99.90;;;;;;4991318;28;20480;-75
2022/07/30 01:47:47;;;;;;;0.63;0.10;;;20.60;99.90;;;;;;4988758;28;20854;-75
2022/07/30 01:50:17;;;;;;;0.70;0.10;;;20.60;99.90;;;;;;4992374;28;20433;-75
2022/07/30 01:52:48;;;;;;;0.70;0.10;;;20.60;99.90;;;;;;4992261;28;20471;-75
2022/07/30 01:55:18;;;;;;;0.63;0.10;;;20.60;99.90;;;;;;4991748;28;20985;-75
2022/07/30 01:57:49;;;;;;;0.70;0.10;;;20.60;99.90;;;;;;4990930;28;20465;-75
2022/07/30 02:00:17;;;;;;;0.60;0.20;;;20.60;99.90;;;;;;4991794;28;20481;-75
2022/07/30 02:02:45;;;;;;;0.70;0.20;;;20.60;99.90;;;;;;4991581;28;20450;-75
2022/07/30 02:05:14;;;;;;;0.70;0.10;;;20.60;99.90;;;;;;4972437;28;20454;-75
2022/07/30 02:07:48;;;;;;;0.70;0.10;;;20.60;99.90;;;;;;4983723;28;20447;-75
2022/07/30 02:10:23;;;;;;;0.70;0.40;;;20.60;99.90;;;;;;4991982;28;20463;-75
2022/07/30 02:12:55;;;;;;;0.67;0.20;;;20.60;99.90;;;;;;4992194;28;20874;-75
2022/07/30 02:15:30;;;;;;;0.60;0.10;;;20.50;99.90;;;;;;4994061;28;20475;-75
2022/07/30 02:18:02;;;;;;;0.70;0.20;;;20.50;99.90;;;;;;4995039;28;20445;-75
2022/07/30 02:20:33;;;;;;;0.70;0.20;;;20.50;99.90;;;;;;4995444;28;20527;-75
2022/07/30 02:23:09;;;;;;;0.60;0.10;;;20.40;99.90;;;;;;4995038;28;20459;-75
2022/07/30 02:25:42;;;;;;;0.70;0.20;;;20.40;99.90;;;;;;4995231;28;20480;-74
2022/07/30 02:28:14;;;;;;;0.70;0.20;;;20.40;99.90;;;;;;4995355;28;20437;-75
2022/07/30 02:30:48;;;;;;;0.60;0.10;;;20.40;99.90;;;;;;4995327;28;20448;-75
2022/07/30 02:33:19;;;;;;;0.60;0.10;;;20.40;99.90;;;;;;4995241;28;20452;-74
2022/07/30 02:35:48;;;;;;;0.60;0.10;;;20.40;99.90;;;;;;4995137;28;20988;-75
2022/07/30 02:38:18;;;;;;;0.60;0.10;;;20.30;99.90;;;;;;4995210;28;20453;-75
2022/07/30 02:40:47;;;;;;;0.60;0.10;;;20.30;99.90;;;;;;4995772;28;20822;-74
2022/07/30 02:43:19;;;;;;;0.70;0.17;;;20.30;99.90;;;;;;4995037;28;20441;-75
2022/07/30 02:45:48;;;;;;;0.60;0.13;;;20.40;99.90;;;;;;4994934;28;20564;-75
2022/07/30 02:48:22;;;;;;;0.70;0.10;;;20.40;99.90;;;;;;4994801;28;20441;-75
2022/07/30 02:51:04;;;;;;;0.60;0.10;;;20.40;99.90;;;;;;4994818;28;20461;-74
2022/07/30 02:53:34;;;;;;;0.60;0.10;;;20.30;99.90;;;;;;4995037;28;20841;-75
2022/07/30 02:56:02;;;;;;;0.60;0.17;;;20.40;99.90;;;;;;4994930;28;20564;-76
2022/07/30 02:58:32;;;;;;;0.67;0.20;;;20.40;99.90;;;;;;4994510;28;20454;-76
2022/07/30 03:01:02;;;;;;;0.60;0.13;;;20.40;99.90;;;;;;4994992;28;20484;-75
2022/07/30 03:03:31;;;;;;;0.60;0.10;;;20.40;99.90;;;;;;4994838;28;20457;-75
2022/07/30 03:06:01;;;;;;;0.60;0.20;;;20.40;99.90;;;;;;4994219;28;21060;-74
2022/07/30 03:08:31;;;;;;;0.60;0.10;;;20.40;99.90;;;;;;4994465;28;20449;-75
2022/07/30 03:11:00;;;;;;;0.60;0.10;;;20.40;99.90;;;;;;4994671;28;20437;-74
2022/07/30 03:13:28;;;;;;;0.60;0.10;;;20.40;99.90;;;;;;4994675;28;20449;-75
2022/07/30 03:15:58;;;;;;;0.70;0.20;;;20.40;99.90;;;;;;4994637;28;20488;-75
2022/07/30 03:18:31;;;;;;;0.60;0.10;;;20.40;99.90;;;;;;4994278;28;20449;-75
2022/07/30 03:21:00;;;;;;;0.60;0.10;;;20.40;99.90;;;;;;4994656;28;20473;-75
2022/07/30 03:23:29;;;;;;;0.63;0.17;;;20.40;99.90;;;;;;4994345;28;20445;-74
2022/07/30 03:26:00;;;;;;;0.60;0.10;;;20.40;99.90;;;;;;4993608;28;20997;-75
2022/07/30 03:28:31;;;;;;;0.67;0.20;;;20.40;99.90;;;;;;4994329;28;20453;-74
2022/07/30 03:31:01;;;;;;;0.60;0.10;;;20.40;99.90;;;;;;4994544;28;20442;-75
2022/07/30 03:33:31;;;;;;;0.60;0.10;;;20.40;99.90;;;;;;4994375;28;20882;-75
2022/07/30 03:36:06;;;;;;;0.60;0.10;;;20.30;99.90;;;;;;4994949;28;20440;-75
2022/07/30 03:38:36;;;;;;;0.60;0.20;;;20.30;99.90;;;;;;4994650;28;20460;-74
2022/07/30 03:41:05;;;;;;;0.67;0.13;;;20.30;99.90;;;;;;4995860;28;20477;-76
2022/07/30 03:43:33;;;;;;;0.60;0.10;;;;;;;;;;4994928;28;20900;-76
2022/07/30 03:46:03;;;;;;;0.60;0.10;;;20.30;99.90;;;;;;4995181;28;20484;-76
2022/07/30 03:48:33;;;;;;;0.60;0.10;;;20.30;99.90;;;;;;4993921;28;20448;-75
2022/07/30 03:51:03;;;;;;;0.60;0.10;;;20.30;99.90;;;;;;4994595;28;20453;-76
2022/07/30 03:53:32;;;;;;;0.70;0.20;;;20.30;99.90;;;;;;4994493;28;20449;-76
2022/07/30 03:56:00;;;;;;;0.60;0.10;;;20.30;99.90;;;;;;4993139;28;20469;-74
2022/07/30 03:58:29;;;;;;;0.70;0.20;;;20.30;99.90;;;;;;4993865;28;20452;-76
2022/07/30 04:01:04;;;;;;;0.60;0.10;;;20.30;99.90;;;;;;4994467;28;20477;-76
2022/07/30 04:03:33;;;;;;;0.60;0.10;;;20.30;99.90;;;;;;4995101;28;20460;-77
2022/07/30 04:06:01;;;;;;;0.60;0.10;;;20.30;99.90;;;;;;4997101;28;20469;-74
2022/07/30 04:08:29;;;;;;;0.60;0.10;;;20.20;99.90;;;;;;4994350;28;20930;-75
2022/07/30 04:10:57;;;;;;;0.60;0.10;;;20.20;99.90;;;;;;4994096;28;20449;-74
2022/07/30 04:13:25;;;;;;;0.60;0.20;;;20.00;99.90;;;;;;4994115;28;20450;-75
2022/07/30 04:15:59;;;;;;;0.60;0.10;;;20.00;99.90;;;;;;4994361;28;20469;-76
2022/07/30 04:18:51;;;;;;;0.60;0.10;;;20.00;99.90;;;;;;4994713;28;20445;-76
2022/07/30 04:21:22;;;;;;;0.60;0.10;;;20.00;99.90;;;;;;4994442;28;21020;-76
2022/07/30 04:23:51;;;;;;;0.60;0.10;;;20.00;99.90;;;;;;4993616;28;20445;-76
2022/07/30 04:26:34;;;;;;;0.70;0.20;;;20.00;99.90;;;;;;4993947;28;20863;-75
2022/07/30 04:29:04;;;;;;;0.60;0.10;;;20.00;99.90;;;;;;4994167;28;20448;-75
2022/07/30 04:31:34;;;;;;;0.60;0.20;;;20.00;99.90;;;;;;4994206;28;20471;-76
2022/07/30 04:34:12;;;;;;;1.60;1.50;;;20.00;99.90;;;;;;4994146;28;20468;-76
2022/07/30 04:36:40;;;;;;;0.60;0.20;;;20.00;99.90;;;;;;4994122;28;21031;-75
2022/07/30 04:39:08;;;;;;;0.67;0.13;;;20.00;99.90;;;;;;4994206;28;20441;-75
2022/07/30 04:41:37;;;;;;;0.60;0.20;;;20.00;99.90;;;;;;4993840;28;20477;-76
2022/07/30 04:44:17;;;;;;;0.60;0.10;;;20.10;99.90;;;;;;4994151;28;20535;-76
2022/07/30 04:46:45;;;;;;;0.60;0.10;;;20.10;99.90;;;;;;4994322;28;20445;-76
2022/07/30 04:49:16;;;;;;;0.80;0.67;;;20.10;99.90;;;;;;4994433;28;20964;-77
2022/07/30 04:51:46;;;;;;;0.60;0.10;;;20.10;99.90;;;;;;4997725;28;20480;-77
2022/07/30 04:54:14;;;;;;;0.60;0.20;;;20.10;99.90;;;;;;4994412;28;20469;-76
2022/07/30 04:56:45;;;;;;;0.60;0.20;;;20.10;99.90;;;;;;4993677;28;20461;-74
2022/07/30 04:59:23;;;;;;;0.60;0.10;;;20.10;99.90;;;;;;4995452;28;20507;-76
2022/07/30 05:01:53;;;;;;;0.70;0.20;;;20.20;99.90;;;;;;4993558;28;20543;-76
2022/07/30 05:04:23;;;;;;;0.60;0.10;;;20.30;99.90;;;;;;4993571;28;20508;-77
2022/07/30 05:06:52;;;;;;;0.60;0.10;;;20.20;99.90;;;;;;4994813;28;20958;-76
2022/07/30 05:09:20;;;;;;;0.60;0.10;;;20.30;99.90;;;;;;4994257;28;20991;-77
2022/07/30 05:11:51;;;;;;;0.60;0.10;;;20.30;99.90;;;;;;4992974;28;20453;-76
2022/07/30 05:14:19;;;;;;;0.60;0.20;;;20.30;99.90;;;;;;4994395;28;21051;-76
2022/07/30 05:16:48;;;;;;;0.60;0.10;;;20.20;99.90;;;;;;4993983;28;20520;-76
2022/07/30 05:19:17;;;;;;;0.60;0.20;;;20.20;99.90;;;;;;4994653;28;20453;-76
2022/07/30 05:21:47;;;;;;;0.60;0.10;;;20.30;99.90;;;;;;4993518;28;21048;-78
2022/07/30 05:24:14;;;;;;;0.60;0.10;;;20.40;99.90;;;;;;4994633;28;20467;-76
2022/07/30 05:26:42;;;;;;;0.60;0.20;;;20.40;99.90;;;;;;4993179;28;20445;-78
2022/07/30 05:29:10;;;;;;;0.60;0.10;;;20.40;99.90;;;;;;4993683;28;20464;-75
2022/07/30 05:31:46;;;;;;;0.60;0.20;;;20.50;99.90;;;;;;4993155;28;20523;-76
2022/07/30 05:34:14;;;;;;;0.60;0.13;;;20.50;99.90;;;;;;4993084;28;20556;-76
2022/07/30 05:36:43;;;;;;;0.67;0.20;;;20.50;99.90;;;;;;4993725;28;20530;-74
2022/07/30 05:39:12;;;;;;;0.60;0.10;;;20.50;99.90;;;;;;4993715;28;20516;-77
2022/07/30 05:41:40;;;;;;;0.70;0.13;;;20.70;99.90;;;;;;4996897;28;20484;-77
2022/07/30 05:44:08;;;;;;;0.60;0.10;;;20.70;99.90;;;;;;4998182;28;20875;-74
2022/07/30 05:46:36;;;;;;;0.60;0.20;;;20.70;99.90;;;;;;4995053;28;20949;-76
2022/07/30 05:49:05;;;;;;;0.63;0.10;;;20.80;99.90;;;;;;4996302;28;20472;-74
2022/07/30 05:51:33;;;;;;;0.60;0.10;;;20.80;99.90;;;;;;4999083;28;20460;-76
2022/07/30 05:54:01;;;;;;;0.70;0.10;;;20.90;99.90;;;;;;5001240;28;20563;-73
2022/07/30 05:56:30;;;;;;;0.60;0.10;;;20.90;99.90;;;;;;5000981;28;20455;-76
2022/07/30 05:58:58;;;;;;;0.60;0.10;;;20.90;99.90;;;;;;5000124;28;20455;-76
2022/07/30 06:01:25;;;;;;;0.60;0.10;;;20.90;99.90;;;;;;4999655;28;20492;-77
2022/07/30 06:03:53;;;;;;;0.67;0.20;;;20.80;99.90;;;;;;4998945;28;20872;-77
2022/07/30 06:06:21;;;;;;;0.67;0.10;;;20.80;99.90;;;;;;4998444;28;20449;-77
2022/07/30 06:08:50;;;;;;;0.60;0.10;;;20.90;99.90;;;;;;4998505;28;20453;-77
2022/07/30 06:11:19;;;;;;;0.70;0.20;;;21.00;99.90;;;;;;4998038;28;20475;-77
2022/07/30 06:13:48;;;;;;;0.60;0.20;;;21.10;99.90;;;;;;4997873;28;20445;-75
2022/07/30 06:16:16;;;;;;;0.63;0.20;;;21.10;99.90;;;;;;4999219;28;20968;-77
2022/07/30 06:18:44;;;;;;;0.70;0.20;;;21.30;99.90;;;;;;4995688;28;20523;-76
2022/07/30 06:21:11;;;;;;;0.70;0.10;;;21.30;99.90;;;;;;4998155;28;20461;-77
2022/07/30 06:23:39;;;;;;;0.70;0.17;;;21.30;99.90;;;;;;4998309;28;20455;-78
2022/07/30 06:26:07;;;;;;;0.70;0.13;;;21.30;99.90;;;;;;4999917;28;20459;-76
2022/07/30 06:28:35;;;;;;;0.70;0.20;;;21.40;99.90;;;;;;5001493;28;20453;-77
2022/07/30 06:31:07;;;;;;;0.70;0.20;;;21.40;99.90;;;;;;4999644;28;20480;-76
2022/07/30 06:33:35;;;;;;;0.63;0.10;;;21.50;99.90;;;;;;4998171;28;20528;-78
2022/07/30 06:36:03;;;;;;;0.70;0.20;;;21.50;99.90;;;;;;4996994;28;20472;-78
2022/07/30 06:38:31;;;;;;;0.70;0.20;;;21.60;99.90;;;;;;4998824;28;20449;-78
2022/07/30 06:40:59;;;;;;;0.70;0.20;;;21.60;99.90;;;;;;4995606;28;20548;-76
2022/07/30 06:43:31;;;;;;;0.70;0.10;;;21.60;99.90;;;;;;4996120;28;20480;-77
2022/07/30 06:45:59;;;;;;;2.10;2.00;;;21.60;99.90;;;;;;4998091;28;20479;-77
2022/07/30 06:48:30;;;;;;;0.70;0.10;;;21.70;99.90;;;;;;4998296;28;20452;-77
2022/07/30 06:50:58;;;;;;;0.70;0.20;;;21.70;99.90;;;;;;4998484;28;20456;-75
2022/07/30 06:53:26;;;;;;;0.70;0.10;;;21.80;99.90;;;;;;4992308;28;20475;-74
2022/07/30 06:55:54;;;;;;;0.70;0.20;;;21.80;99.90;;;;;;4995035;28;20472;-76
2022/07/30 06:58:28;;;;;;;0.70;0.10;;;21.70;99.90;;;;;;4996250;28;20437;-76
2022/07/30 07:00:56;;;;;;;1.07;0.97;;;;;;;;;;4992661;28;20460;-77
2022/07/30 07:03:26;;;;;;;0.70;0.10;;;21.70;99.90;;;;;;4997683;28;20900;-76
2022/07/30 07:06:09;;;;;;;0.70;0.10;;;21.60;99.90;;;;;;4997306;28;20453;-77
2022/07/30 07:08:38;;;;;;;0.70;0.10;;;21.60;99.90;;;;;;4997067;28;20449;-77
2022/07/30 07:11:06;;;;;;;0.70;0.10;;;21.70;99.90;;;;;;4997078;28;20452;-76
2022/07/30 07:13:34;;;;;;;0.70;0.17;;;21.80;99.90;;;;;;4996204;28;20447;-77
2022/07/30 07:16:02;;;;;;;0.70;0.20;;;21.80;99.90;;;;;;4995634;28;20476;-76
2022/07/30 07:18:30;;;;;;;0.70;0.10;;;21.90;99.90;;;;;;4995184;28;20977;-70
2022/07/30 07:20:58;;;;;;;0.70;0.20;;;22.00;99.90;;;;;;4992573;28;20449;-68
2022/07/30 07:23:27;;;;;;;0.70;0.10;;;22.10;99.90;;;;;;4992513;28;20483;-68
2022/07/30 07:26:09;;;;;;;0.70;0.10;;;22.20;99.90;;;;;;4992110;28;20445;-67
2022/07/30 07:28:38;;;;;;;0.70;0.17;;;22.30;99.90;;;;;;4993643;28;20451;-70
2022/07/30 07:31:07;;;;;;;0.70;0.20;;;22.40;99.90;;;;;;4993793;28;20445;-69
2022/07/30 07:33:35;;;;;;;0.70;0.10;;;22.50;99.90;;;;;;4993095;28;20445;-68
2022/07/30 07:36:03;;;;;;;0.70;0.10;;;22.60;99.90;;;;;;4992727;28;20481;-68
2022/07/30 07:38:33;;;;;;;0.70;0.20;;;22.60;99.90;;;;;;4993831;28;20473;-69
2022/07/30 07:41:01;;;;;;;0.70;0.20;;;22.70;99.90;;;;;;4992682;28;20461;-69
2022/07/30 07:43:29;;;;;;;0.70;0.10;;;22.80;99.90;;;;;;4993520;28;20485;-69
2022/07/30 07:45:57;;;;;;;0.70;0.20;;;22.90;99.90;;;;;;4993291;28;20465;-69
2022/07/30 07:48:25;;;;;;;0.70;0.20;;;;;;;;;;4993490;28;20504;-69
2022/07/30 07:50:53;;;;;;;0.70;0.17;;;23.00;99.90;;;;;;4993473;28;20668;-70
2022/07/30 07:53:27;;;;;;;0.70;0.10;;;23.10;99.90;;;;;;4994011;28;20442;-69
2022/07/30 07:55:56;;;;;;;0.70;0.10;;;23.10;99.90;;;;;;4993592;28;20954;-68
2022/07/30 07:58:24;;;;;;;0.70;0.10;;;23.10;99.90;;;;;;4993413;28;20545;-70
2022/07/30 08:00:53;;;;;;;0.70;0.20;;;23.10;99.90;;;;;;4993340;28;20455;-70
2022/07/30 08:03:21;;;;;;;0.70;0.20;;;23.20;99.90;;;;;;4992974;28;20535;-68
2022/07/30 08:05:49;;;;;;;0.70;0.10;;;23.30;99.90;;;;;;4993018;28;20469;-70
2022/07/30 08:08:32;;;;;;;0.70;0.10;;;23.30;99.90;;;;;;4992860;28;20453;-71
2022/07/30 08:11:01;;;;;;;0.80;0.40;;;23.40;99.90;;;;;;4992979;28;20468;-69
2022/07/30 08:13:29;;;;;;;0.70;0.20;;;;;;;;;;4990709;28;20585;-70
2022/07/30 08:16:17;;;;;;;0.70;0.20;;;23.50;99.90;;;;;;4988097;28;20437;-73
2022/07/30 08:18:45;;;;;;;0.70;0.17;;;23.60;99.90;;;;;;4992726;28;20445;-71
2022/07/30 08:21:14;;;;;;;0.80;0.30;;;23.60;99.90;;;;;;4993011;28;20521;-72
2022/07/30 08:23:42;;;;;;;0.70;0.20;;;23.60;99.90;;;;;;4992355;28;20588;-71
2022/07/30 08:26:12;;;;;;;0.70;0.20;;;;;;;;;;4993102;28;20513;-69
2022/07/30 08:28:41;;;;;;;0.70;0.10;;;23.50;99.90;;;;;;4992974;28;20456;-69
2022/07/30 08:31:09;;;;;;;0.70;0.20;;;23.60;99.90;;;;;;4992190;28;20946;-69
2022/07/30 08:33:37;;;;;;;0.70;0.10;;;23.70;99.90;;;;;;4992722;28;20520;-71
2022/07/30 08:36:06;;;;;;;0.70;0.20;;;23.70;99.90;;;;;;4992735;28;20813;-69
2022/07/30 08:38:37;;;;;;;0.70;0.10;;;23.70;99.90;;;;;;4992854;28;20496;-68
2022/07/30 08:41:05;;;;;;;0.70;0.20;;;23.80;99.90;;;;;;4989577;28;20549;-68
2022/07/30 08:43:35;;;;;;;0.70;0.20;;;23.90;99.90;;;;;;4989962;28;20563;-71
2022/07/30 08:46:04;;;;;;;0.70;0.20;;;23.90;99.90;;;;;;4992322;28;20973;-70
2022/07/30 08:48:34;;;;;;;1.07;0.47;;;24.00;99.90;;;;;;4992399;28;20949;-68
2022/07/30 08:51:02;;;;;;;0.80;0.70;;;24.00;99.90;;;;;;4992888;28;20447;-69
2022/07/30 08:53:32;;;;;;;0.70;0.20;;;24.00;99.90;;;;;;4992001;28;20437;-68
2022/07/30 08:56:00;;;;;;;0.70;0.20;;;23.90;99.90;;;;;;4992404;28;20473;-68
2022/07/30 08:58:30;;;;;;;0.70;0.10;;;24.00;99.90;;;;;;4992407;28;20975;-71
2022/07/30 09:00:59;;;;;;;0.70;0.10;;;23.90;99.90;;;;;;4992764;28;20452;-72
2022/07/30 09:03:27;;;;;;;0.70;0.20;;;23.80;99.90;;;;;;4993151;28;20483;-75
2022/07/30 09:05:54;;;;;;;0.70;0.20;;;23.90;99.90;;;;;;4993149;28;20563;-68
2022/07/30 09:08:22;;;;;;;0.70;0.10;;;23.90;99.90;;;;;;4992478;28;20460;-69
2022/07/30 09:10:50;;;;;;;0.70;0.10;;;24.10;99.90;;;;;;4991630;28;20477;-71
2022/07/30 09:13:25;;;;;;;0.70;0.20;;;24.10;99.90;;;;;;4992068;28;20471;-71
2022/07/30 09:15:53;;;;;;;0.70;0.20;;;24.20;99.90;;;;;;4992298;28;20845;-70
2022/07/30 09:18:30;;;;;;;0.70;0.10;;;24.10;99.90;;;;;;4992351;28;20561;-70
2022/07/30 09:21:13;;;;;;;0.70;0.10;;;24.20;99.90;;;;;;4992325;28;20449;-70
2022/07/30 09:23:41;;;;;;;0.70;0.10;;;24.30;99.90;;;;;;4991943;28;20811;-70
2022/07/30 09:26:09;;;;;;;2.70;2.20;;;24.20;99.90;;;;;;4992432;28;20456;-69
2022/07/30 09:28:37;;;;;;;4.97;0.77;;;24.30;99.90;;;;;;4992399;28;20476;-70
2022/07/30 09:31:06;;;;;;;0.70;0.10;;;24.30;99.90;;;;;;4991798;28;20457;-68
2022/07/30 09:33:37;;;;;;;0.70;0.10;;;24.30;99.90;;;;;;4992132;28;20444;-69
2022/07/30 09:36:09;;;;;;;0.70;0.20;;;24.30;99.90;;;;;;5010460;23;20581;-68
2022/07/30 09:38:48;;;;;;;0.70;0.10;;;24.30;99.90;;;;;;5010156;28;20444;-69
2022/07/30 09:41:17;;;;;;;0.70;0.20;;;24.30;99.90;;;;;;5011740;28;20450;-69
2022/07/30 09:44:05;;;;;;;2.17;2.07;;;24.40;99.90;;;;;;5011802;28;20827;-69
2022/07/30 09:46:45;;;;;;;0.70;0.20;;;24.40;99.90;;;;;;4998792;28;20552;-70
2022/07/30 09:49:16;;;;;;;0.70;0.13;;;24.40;99.90;;;;;;4990416;28;20999;-69
2022/07/30 09:51:45;;;;;;;0.70;0.20;;;;;;;;;;4992871;28;20445;-68
2022/07/30 09:54:46;;;;;;;0.80;0.23;;;24.50;99.90;;;;;;4991988;28;20903;-69
2022/07/30 09:57:19;;;;;;;0.70;0.20;;;24.50;99.90;;;;;;4987207;28;20457;-69
2022/07/30 09:59:55;;;;;;;0.70;0.10;;;24.90;99.90;;;;;;4992644;28;20440;-69
2022/07/30 10:02:29;;;;;;;0.70;0.20;;;25.10;99.90;;;;;;4991718;28;20445;-69
2022/07/30 10:05:10;;;;;;;0.70;0.20;;;25.20;99.90;;;;;;4991305;28;20563;-69
2022/07/30 10:07:48;;;;;;;0.70;0.10;;;25.20;99.90;;;;;;4991183;28;20457;-71
2022/07/30 10:10:20;;;;;;;0.70;0.10;;;25.20;99.90;;;;;;4992138;28;20473;-70
2022/07/30 10:12:50;;;;;;;0.70;0.10;;;25.20;99.90;;;;;;4989035;28;20452;-69
2022/07/30 10:15:20;;;;;;;0.70;0.10;;;25.30;99.90;;;;;;4989680;28;20476;-71
2022/07/30 10:17:49;;;;;;;0.70;0.10;;;26.90;99.90;;;;;;4989412;28;20863;-69
2022/07/30 10:20:19;;;;;;;0.70;0.17;;;;;;;;;;4989010;28;20453;-69
2022/07/30 10:22:47;;;;;;;0.70;0.10;;;25.60;99.90;;;;;;4989002;28;20755;-69
2022/07/30 10:25:18;;;;;;;0.70;0.20;;;25.60;99.90;;;;;;4990412;28;20645;-69
2022/07/30 10:27:50;;;;;;;0.70;0.23;;;25.70;99.90;;;;;;4990290;28;20472;-68
2022/07/30 10:30:26;;;;;;;0.70;0.20;;;25.60;99.90;;;;;;4991392;28;20452;-68
2022/07/30 10:32:57;;;;;;;0.70;0.17;;;25.60;99.90;;;;;;4990100;28;20472;-69
2022/07/30 10:35:28;;;;;;;0.70;0.17;;;25.60;99.90;;;;;;4991638;28;20464;-68
2022/07/30 10:38:09;;;;;;;4.70;0.77;;;25.60;99.90;;;;;;4975506;28;20441;-69
2022/07/30 10:40:47;;;;;;;0.70;0.20;;;25.80;99.90;;;;;;4976228;28;20500;-68
2022/07/30 10:43:49;;;;;;;0.70;0.10;;;26.00;99.90;;;;;;4990381;28;20432;-68
2022/07/30 10:46:29;;;;;;;0.70;0.10;;;26.10;99.90;;;;;;4966307;28;20461;-69
2022/07/30 10:49:08;;;;;;;1.30;0.87;;;26.00;99.90;;;;;;4975456;28;20452;-68
2022/07/30 10:51:49;;;;;;;0.70;0.10;;;25.80;99.90;;;;;;4975596;28;20438;-69
2022/07/30 10:54:40;;;;;;;0.70;0.10;;;25.80;99.90;;;;;;4994408;28;20961;-68
2022/07/30 10:57:12;;;;;;;1.10;0.60;;;25.90;99.90;;;;;;4988891;28;20484;-69
2022/07/30 11:00:10;;;;;;;0.70;0.10;;;25.80;99.90;;;;;;4995047;28;20441;-69
2022/07/30 11:02:40;;;;;;;0.70;0.20;;;26.00;99.90;;;;;;4994712;28;20548;-68
2022/07/30 11:05:23;;;;;;;1.43;0.97;;;26.10;99.90;;;;;;4994442;28;20492;-69
2022/07/30 11:08:37;;;;;;;0.70;0.10;;;26.10;99.90;;;;;;4988675;28;20437;-69
2022/07/30 11:11:46;;;;;;;1.20;0.87;;;26.20;99.90;;;;;;4991685;28;20449;-69
2022/07/30 11:14:57;;;;;;;1.50;0.60;;;26.40;99.90;;;;;;4981118;28;20495;-69
2022/07/30 11:18:02;;;;;;;0.70;0.20;;;26.50;99.90;;;;;;4994406;28;20576;-69
2022/07/30 11:20:31;;;;;;;0.70;0.20;;;26.40;99.90;;;;;;4994711;28;20477;-70
2022/07/30 11:23:09;;;;;;;0.70;0.20;;;26.20;99.90;;;;;;4995014;28;20443;-69
2022/07/30 11:25:43;;;;;;;0.70;0.20;;;26.20;99.90;;;;;;4994439;28;20481;-69
2022/07/30 11:28:37;;;;;;;0.70;0.10;;;26.30;99.90;;;;;;4992962;28;20465;-68
2022/07/30 11:31:26;;;;;;;0.70;0.10;;;26.40;99.90;;;;;;4993472;28;20449;-69
2022/07/30 11:34:27;;;;;;;1.00;0.70;;;26.40;99.90;;;;;;4993671;28;20834;-71
2022/07/30 11:37:04;;;;;;;1.73;1.20;;;;;;;;;;4993982;28;20476;-77
2022/07/30 11:40:09;;;;;;;1.73;0.83;;;26.60;99.90;;;;;;4994780;28;20817;-77
2022/07/30 11:42:41;;;;;;;1.37;0.97;;;26.80;99.90;;;;;;4994634;28;20557;-77
2022/07/30 11:45:25;;;;;;;0.70;0.20;;;26.80;99.90;;;;;;4993119;28;20500;-76
2022/07/30 11:47:55;;;;;;;0.70;0.10;;;26.80;99.90;;;;;;4983818;28;20488;-74
2022/07/30 11:50:26;;;;;;;0.70;0.30;;;26.90;99.90;;;;;;4990684;28;20456;-72
2022/07/30 11:52:56;;;;;;;2.00;1.90;;;27.10;99.90;;;;;;4992940;28;20545;-73
2022/07/30 11:55:26;;;;;;;0.70;0.20;;;27.10;99.90;;;;;;4993388;28;20552;-73
2022/07/30 11:57:56;;;;;;;0.70;0.20;;;27.10;99.90;;;;;;4992269;28;20445;-74
2022/07/30 12:00:24;;;;;;;0.70;0.10;;;27.10;99.90;;;;;;4992270;28;20461;-74
2022/07/30 12:02:53;;;;;;;0.70;0.20;;;27.10;99.90;;;;;;4993695;28;20445;-76
2022/07/30 12:05:25;;;;;;;0.70;0.20;;;27.30;99.90;;;;;;4992040;28;20541;-76
2022/07/30 12:07:57;;;;;;;0.80;0.37;;;27.40;99.90;;;;;;4993303;28;20437;-75
2022/07/30 12:10:26;;;;;;;0.90;0.50;;;27.40;99.90;;;;;;4994282;28;20449;-74
2022/07/30 12:13:08;;;;;;;0.70;0.20;;;27.20;99.90;;;;;;4995055;28;20455;-76
2022/07/30 12:15:38;;;;;;;0.70;0.17;;;27.30;99.90;;;;;;4996658;28;20469;-76
2022/07/30 12:18:10;;;;;;;0.70;0.23;;;27.40;99.90;;;;;;4997794;28;20451;-76
2022/07/30 12:20:54;;;;;;;0.93;0.67;;;;;;;;;;4996783;28;20468;-76
2022/07/30 12:23:25;;;;;;;0.80;0.30;;;;;;;;;;4998368;28;20477;-76
2022/07/30 12:25:53;;;;;;;0.70;0.10;;;;;;;;;;4997690;28;20488;-75
2022/07/30 12:28:25;;;;;;;0.70;0.30;;;27.40;99.90;;;;;;4997717;28;20509;-76
2022/07/30 12:30:54;;;;;;;0.70;0.30;;;;;;;;;;4997603;28;20485;-75
2022/07/30 12:33:23;;;;;;;0.70;0.27;;;27.30;99.90;;;;;;4997530;28;20448;-76
2022/07/30 12:35:52;;;;;;;1.03;0.40;;;;;;;;;;4998683;28;20469;-75
2022/07/30 12:38:21;;;;;;;1.20;0.77;;;27.40;99.90;;;;;;4997381;28;20445;-76
2022/07/30 12:40:55;;;;;;;0.70;0.10;;;27.70;99.90;;;;;;4993908;28;21051;-74
2022/07/30 12:43:44;;;;;;;0.70;0.20;;;27.70;99.90;;;;;;4998551;28;20472;-75
2022/07/30 12:46:13;;;;;;;0.70;0.20;;;;;;;;;;4996792;28;20886;-74
2022/07/30 12:48:53;;;;;;;0.70;0.20;;;28.00;99.90;;;;;;4995087;28;20449;-76
2022/07/30 12:51:22;;;;;;;0.70;0.20;;;28.10;99.90;;;;;;4994273;28;20441;-75
2022/07/30 12:53:51;;;;;;;0.70;0.20;;;28.20;99.90;;;;;;4993653;28;20449;-75
2022/07/30 12:56:20;;;;;;;0.70;0.20;;;28.30;99.90;;;;;;4993515;28;21020;-74
2022/07/30 12:58:50;;;;;;;0.70;0.10;;;28.30;99.90;;;;;;4992897;28;20457;-74
2022/07/30 13:01:18;;;;;;;0.83;0.40;;;28.30;99.90;;;;;;4993069;28;20447;-74
2022/07/30 13:03:46;;;;;;;1.43;0.60;;;28.30;99.90;;;;;;4992012;28;20791;-74
2022/07/30 13:06:16;;;;;;;0.80;0.30;;;28.40;99.90;;;;;;4992524;28;20499;-74
2022/07/30 13:08:46;;;;;;;0.80;0.40;;;28.50;99.90;;;;;;4988914;28;20489;-75
2022/07/30 13:11:15;;;;;;;0.70;0.10;;;28.50;99.90;;;;;;4992415;28;20434;-73
2022/07/30 13:13:43;;;;;;;0.70;0.10;;;28.70;99.90;;;;;;4992075;28;20794;-74